createdAt,value
2019-05-22T00:02:19.383Z,94.40
2019-05-22T00:04:53.486Z,94.40
2019-05-22T00:07:23.492Z,94.20
2019-05-22T00:09:55.002Z,94.20
2019-05-22T00:12:25.725Z,94.40
2019-05-22T00:14:56.444Z,94.10
2019-05-22T00:17:30.573Z,94.00
2019-05-22T00:20:01.668Z,94.20
2019-05-22T00:22:33.579Z,94.40
2019-05-22T00:25:05.198Z,94.50
2019-05-22T00:27:35.171Z,94.60
2019-05-22T00:30:08.955Z,94.80
2019-05-22T00:32:39.631Z,94.80
2019-05-22T00:35:09.979Z,95.10
2019-05-22T00:37:40.476Z,95.10
2019-05-22T00:40:12.132Z,95.20
2019-05-22T00:42:43.196Z,95.70
2019-05-22T00:45:14.673Z,95.30
2019-05-22T00:47:44.475Z,95.20
2019-05-22T00:50:16.377Z,95.20
2019-05-22T00:52:50.589Z,95.20
2019-05-22T00:55:26.414Z,95.40
2019-05-22T00:58:07.033Z,95.70
2019-05-22T01:00:39.853Z,95.60
2019-05-22T01:03:11.340Z,95.60
2019-05-22T01:05:42.703Z,95.50
2019-05-22T01:08:14.435Z,95.20
2019-05-22T01:10:45.951Z,95.20
2019-05-22T01:13:15.943Z,95.00
2019-05-22T01:15:46.901Z,94.70
2019-05-22T01:18:16.692Z,94.60
2019-05-22T01:20:48.911Z,94.40
2019-05-22T01:23:20.406Z,94.50
2019-05-22T01:25:52.071Z,95.00
2019-05-22T01:28:21.953Z,94.90
2019-05-22T01:30:56.388Z,95.20
2019-05-22T01:33:27.821Z,95.30
2019-05-22T01:36:02.135Z,95.40
2019-05-22T01:38:33.666Z,95.60
2019-05-22T01:41:10.988Z,95.70
2019-05-22T01:43:42.189Z,95.70
2019-05-22T01:46:12.618Z,95.20
2019-05-22T01:48:42.432Z,95.10
2019-05-22T01:51:13.868Z,95.30
2019-05-22T01:53:43.824Z,95.20
2019-05-22T01:56:15.414Z,95.30
2019-05-22T01:58:45.414Z,95.40
2019-05-22T02:01:23.883Z,95.60
2019-05-22T02:03:55.270Z,95.00
2019-05-22T02:06:26.778Z,94.40
2019-05-22T02:09:17.472Z,94.50
2019-05-22T02:11:49.118Z,95.00
2019-05-22T02:14:20.066Z,95.20
2019-05-22T02:16:56.918Z,95.00
2019-05-22T02:19:22.654Z,94.80
2019-05-22T02:21:54.202Z,94.80
2019-05-22T02:24:23.997Z,94.70
2019-05-22T02:26:54.902Z,94.80
2019-05-22T02:29:26.362Z,94.50
2019-05-22T02:31:57.875Z,94.50
2019-05-22T02:34:28.305Z,94.70
2019-05-22T02:36:59.278Z,94.90
2019-05-22T02:39:30.684Z,94.80
2019-05-22T02:42:06.685Z,94.60
2019-05-22T02:44:37.258Z,94.40
2019-05-22T02:47:18.727Z,94.60
2019-05-22T02:49:40.209Z,94.60
2019-05-22T02:52:10.314Z,94.50
2019-05-22T02:54:40.273Z,94.30
2019-05-22T02:57:11.977Z,94.30
2019-05-22T02:59:42.547Z,94.30
2019-05-22T03:02:14.191Z,94.50
2019-05-22T03:05:07.314Z,94.20
2019-05-22T03:07:38.063Z,94.10
2019-05-22T03:10:10.006Z,94.20
2019-05-22T03:12:41.566Z,94.50
2019-05-22T03:15:13.036Z,94.70
2019-05-22T03:17:43.653Z,94.70
2019-05-22T03:20:16.642Z,94.80
2019-05-22T03:23:09.860Z,94.90
2019-05-22T03:25:40.244Z,94.90
2019-05-22T03:28:11.132Z,94.50
2019-05-22T03:30:42.655Z,94.30
2019-05-22T03:33:13.543Z,94.10
2019-05-22T03:35:50.998Z,94.10
2019-05-22T03:38:21.456Z,94.30
2019-05-22T03:40:53.042Z,94.40
2019-05-22T03:43:25.138Z,94.40
2019-05-22T03:45:56.416Z,94.50
2019-05-22T03:48:28.552Z,94.50
2019-05-22T03:51:12.541Z,94.50
2019-05-22T03:53:43.897Z,94.20
2019-05-22T03:56:15.777Z,94.00
2019-05-22T03:58:46.984Z,94.00
2019-05-22T04:01:17.705Z,93.90
2019-05-22T04:03:48.444Z,94.20
2019-05-22T04:06:19.832Z,94.30
2019-05-22T04:08:51.701Z,94.50
2019-05-22T04:11:22.924Z,94.60
2019-05-22T04:13:53.183Z,94.40
2019-05-22T04:16:24.593Z,94.00
2019-05-22T04:18:55.870Z,94.00
2019-05-22T04:21:25.648Z,94.20
2019-05-22T04:23:55.546Z,94.00
2019-05-22T04:26:26.645Z,93.90
2019-05-22T04:28:57.868Z,94.00
2019-05-22T04:31:49.668Z,94.00
2019-05-22T04:34:20.916Z,93.90
2019-05-22T04:36:50.898Z,93.90
2019-05-22T04:39:24.333Z,94.10
2019-05-22T04:41:55.445Z,94.30
2019-05-22T04:44:26.591Z,93.90
2019-05-22T04:46:56.470Z,93.70
2019-05-22T04:49:26.461Z,93.70
2019-05-22T04:51:56.461Z,93.60
2019-05-22T04:54:26.190Z,93.60
2019-05-22T04:56:56.033Z,93.50
2019-05-22T04:59:25.831Z,93.30
2019-05-22T05:01:56.174Z,93.20
2019-05-22T05:04:25.881Z,92.80
2019-05-22T05:06:55.728Z,92.70
2019-05-22T05:09:25.956Z,92.60
2019-05-22T05:11:55.901Z,92.50
2019-05-22T05:14:26.398Z,92.10
2019-05-22T05:16:56.575Z,92.00
2019-05-22T05:19:27.244Z,92.10
2019-05-22T05:21:57.066Z,92.40
2019-05-22T05:24:27.562Z,92.00
2019-05-22T05:26:59.612Z,91.90
2019-05-22T05:29:29.684Z,92.10
2019-05-22T05:31:59.919Z,92.00
2019-05-22T05:34:39.616Z,92.00
2019-05-22T05:37:10.138Z,92.10
2019-05-22T05:39:44.051Z,92.00
2019-05-22T05:42:13.824Z,92.00
2019-05-22T05:44:43.634Z,91.80
2019-05-22T05:47:13.460Z,91.60
2019-05-22T05:49:43.386Z,91.70
2019-05-22T05:52:13.407Z,91.90
2019-05-22T05:54:43.743Z,92.00
2019-05-22T05:57:36.731Z,91.90
2019-05-22T06:00:09.612Z,91.90
2019-05-22T06:02:53.997Z,91.90
2019-05-22T06:05:11.009Z,91.70
2019-05-22T06:07:41.194Z,91.50
2019-05-22T06:10:27.782Z,91.40
2019-05-22T06:12:57.679Z,91.00
2019-05-22T06:15:46.419Z,90.90
2019-05-22T06:18:29.213Z,90.80
2019-05-22T06:21:03.782Z,90.60
2019-05-22T06:23:35.748Z,89.80
2019-05-22T06:26:07.197Z,88.70
2019-05-22T06:28:38.173Z,88.60
2019-05-22T06:31:11.516Z,87.60
2019-05-22T06:33:41.318Z,86.50
2019-05-22T06:36:13.872Z,85.90
2019-05-22T06:38:48.623Z,85.10
2019-05-22T06:41:20.303Z,84.50
2019-05-22T06:44:22.714Z,83.40
2019-05-22T06:46:53.558Z,81.00
2019-05-22T06:49:35.584Z,78.40
2019-05-22T06:52:08.362Z,76.10
2019-05-22T06:54:38.945Z,74.80
2019-05-22T06:57:11.142Z,73.00
2019-05-22T06:59:41.076Z,69.50
2019-05-22T07:02:13.253Z,66.60
2019-05-22T07:04:42.735Z,64.60
2019-05-22T07:07:12.770Z,62.70
2019-05-22T07:09:44.622Z,58.00
2019-05-22T07:12:15.685Z,57.30
2019-05-22T07:14:51.574Z,56.30
2019-05-22T07:17:23.640Z,56.20
2019-05-22T07:19:53.835Z,56.50
2019-05-22T07:22:24.194Z,56.90
2019-05-22T07:24:54.022Z,57.40
2019-05-22T07:27:26.417Z,57.50
2019-05-22T07:29:56.290Z,57.20
2019-05-22T07:32:30.529Z,56.80
2019-05-22T07:34:58.063Z,57.20
2019-05-22T07:37:28.011Z,56.70
2019-05-22T07:39:57.991Z,58.20
2019-05-22T07:42:27.904Z,56.80
2019-05-22T07:44:57.656Z,57.10
2019-05-22T07:47:27.391Z,55.60
2019-05-22T07:49:57.281Z,56.00
2019-05-22T07:52:27.461Z,53.50
2019-05-22T07:54:57.557Z,51.80
2019-05-22T07:57:27.360Z,51.90
2019-05-22T07:59:57.163Z,53.10
2019-05-22T08:02:27.701Z,53.20
2019-05-22T08:04:57.983Z,51.30
2019-05-22T08:07:28.388Z,49.00
2019-05-22T08:09:58.207Z,48.70
2019-05-22T08:12:29.003Z,47.80
2019-05-22T08:14:59.101Z,47.20
2019-05-22T08:17:29.050Z,47.90
2019-05-22T08:19:58.779Z,49.10
2019-05-22T08:22:29.468Z,49.50
2019-05-22T08:24:59.303Z,49.00
2019-05-22T08:27:29.258Z,48.30
2019-05-22T08:29:59.571Z,49.30
2019-05-22T08:32:29.436Z,50.30
2019-05-22T08:34:59.900Z,49.40
2019-05-22T08:37:30.171Z,49.70
2019-05-22T08:40:00.105Z,46.50
2019-05-22T08:42:34.818Z,47.60
2019-05-22T08:45:02.541Z,46.50
2019-05-22T08:47:32.530Z,44.60
2019-05-22T08:50:02.414Z,41.90
2019-05-22T08:52:32.314Z,40.80
2019-05-22T08:55:02.649Z,39.80
2019-05-22T08:57:33.839Z,41.20
2019-05-22T09:00:06.955Z,43.70
2019-05-22T09:02:36.811Z,45.40
2019-05-22T09:05:08.120Z,43.50
2019-05-22T09:07:39.239Z,42.60
2019-05-22T09:10:09.495Z,43.00
2019-05-22T09:12:39.367Z,43.50
2019-05-22T09:15:09.189Z,41.80
2019-05-22T09:17:40.046Z,40.70
2019-05-22T09:20:11.130Z,38.00
2019-05-22T09:22:41.680Z,35.60
2019-05-22T09:25:13.667Z,36.90
2019-05-22T09:27:44.300Z,38.70
2019-05-22T09:30:14.513Z,38.70
2019-05-22T09:32:47.434Z,38.40
2019-05-22T09:35:15.720Z,39.70
2019-05-22T09:37:45.462Z,39.30
2019-05-22T09:40:15.293Z,39.80
2019-05-22T09:42:45.500Z,40.20
2019-05-22T09:45:16.690Z,43.10
2019-05-22T09:47:46.821Z,43.30
2019-05-22T09:50:17.577Z,42.70
2019-05-22T09:52:57.139Z,42.80
2019-05-22T09:55:19.434Z,41.40
2019-05-22T09:57:49.453Z,42.60
2019-05-22T10:00:20.909Z,43.70
2019-05-22T10:02:50.951Z,44.10
2019-05-22T10:05:21.073Z,44.30
2019-05-22T10:08:00.482Z,43.00
2019-05-22T10:10:22.752Z,44.10
2019-05-22T10:12:53.145Z,44.00
2019-05-22T10:15:23.590Z,44.10
2019-05-22T10:17:53.447Z,41.10
2019-05-22T10:20:24.141Z,40.50
2019-05-22T10:22:54.011Z,39.80
2019-05-22T10:25:23.888Z,40.40
2019-05-22T10:27:53.871Z,41.20
2019-05-22T10:30:24.778Z,41.20
2019-05-22T10:32:54.723Z,41.70
2019-05-22T10:35:25.615Z,41.30
2019-05-22T10:37:55.826Z,41.00
2019-05-22T10:40:26.043Z,41.40
2019-05-22T10:42:56.533Z,40.40
2019-05-22T10:45:27.748Z,37.90
2019-05-22T10:47:57.555Z,36.30
2019-05-22T10:50:27.475Z,34.70
2019-05-22T10:52:57.646Z,35.50
2019-05-22T10:55:28.343Z,35.60
2019-05-22T10:57:58.292Z,35.90
2019-05-22T11:00:29.135Z,36.90
2019-05-22T11:02:58.854Z,38.40
2019-05-22T11:05:29.359Z,38.60
2019-05-22T11:07:59.968Z,39.60
2019-05-22T11:10:29.777Z,41.20
2019-05-22T11:12:59.790Z,40.40
2019-05-22T11:15:29.795Z,41.60
2019-05-22T11:17:59.653Z,42.20
2019-05-22T11:20:30.781Z,41.60
2019-05-22T11:23:01.036Z,41.40
2019-05-22T11:25:31.518Z,41.50
2019-05-22T11:28:01.514Z,41.90
2019-05-22T11:30:31.520Z,41.10
2019-05-22T11:33:01.681Z,42.20
2019-05-22T11:35:32.141Z,41.50
2019-05-22T11:38:02.255Z,42.00
2019-05-22T11:40:33.216Z,42.30
2019-05-22T11:43:03.045Z,42.50
2019-05-22T11:45:32.862Z,42.60
2019-05-22T11:48:02.926Z,42.10
2019-05-22T11:50:33.517Z,42.50
2019-05-22T11:53:03.612Z,43.10
2019-05-22T11:55:44.912Z,44.10
2019-05-22T11:58:06.926Z,45.10
2019-05-22T12:00:36.851Z,45.20
2019-05-22T12:03:07.449Z,45.10
2019-05-22T12:05:37.461Z,45.60
2019-05-22T12:08:08.311Z,45.20
2019-05-22T12:10:38.565Z,44.30
2019-05-22T12:13:09.203Z,43.60
2019-05-22T12:15:40.527Z,44.50
2019-05-22T12:18:10.761Z,44.00
2019-05-22T12:20:40.887Z,43.40
2019-05-22T12:23:10.795Z,43.00
2019-05-22T12:25:41.319Z,43.20
2019-05-22T12:28:11.226Z,42.90
2019-05-22T12:30:41.616Z,44.00
2019-05-22T12:33:13.940Z,44.80
2019-05-22T12:35:44.056Z,45.50
2019-05-22T12:38:14.969Z,46.40
2019-05-22T12:40:46.557Z,46.40
2019-05-22T12:43:18.131Z,47.30
2019-05-22T12:45:49.093Z,47.00
2019-05-22T12:48:19.314Z,46.90
2019-05-22T12:50:49.461Z,46.90
2019-05-22T12:53:19.975Z,46.00
2019-05-22T12:55:49.683Z,46.50
2019-05-22T12:58:20.356Z,47.00
2019-05-22T13:00:50.757Z,47.00
2019-05-22T13:03:20.919Z,47.90
2019-05-22T13:05:51.869Z,48.40
2019-05-22T13:08:21.736Z,47.70
2019-05-22T13:10:52.448Z,49.00
2019-05-22T13:13:22.777Z,50.10
2019-05-22T13:15:54.251Z,50.90
2019-05-22T13:18:24.305Z,51.30
2019-05-22T13:20:54.212Z,51.40
2019-05-22T13:23:24.860Z,53.70
2019-05-22T13:25:55.136Z,54.00
2019-05-22T13:28:25.586Z,53.60
2019-05-22T13:30:55.474Z,54.00
2019-05-22T13:33:26.912Z,54.40
2019-05-22T13:35:56.745Z,53.50
2019-05-22T13:38:27.797Z,53.40
2019-05-22T13:40:57.650Z,55.00
2019-05-22T13:43:28.758Z,53.70
2019-05-22T13:45:58.555Z,52.90
2019-05-22T13:48:28.865Z,51.70
2019-05-22T13:50:59.278Z,52.20
2019-05-22T13:53:29.929Z,51.40
2019-05-22T13:55:59.945Z,51.00
2019-05-22T13:58:30.119Z,51.10
2019-05-22T14:00:59.933Z,50.70
2019-05-22T14:03:30.124Z,50.90
2019-05-22T14:06:01.484Z,49.90
2019-05-22T14:08:31.325Z,50.40
2019-05-22T14:11:01.561Z,50.50
2019-05-22T14:13:32.048Z,49.90
2019-05-22T14:16:01.796Z,50.20
2019-05-22T14:18:31.719Z,50.00
2019-05-22T14:21:01.470Z,50.80
2019-05-22T14:23:31.445Z,50.40
2019-05-22T14:26:01.262Z,49.40
2019-05-22T14:28:31.416Z,49.60
2019-05-22T14:31:01.478Z,48.90
2019-05-22T14:33:31.740Z,47.90
2019-05-22T14:36:02.300Z,48.00
2019-05-22T14:38:32.473Z,48.40
2019-05-22T14:41:02.744Z,49.60
2019-05-22T14:43:32.616Z,49.90
2019-05-22T14:46:02.971Z,50.30
2019-05-22T14:48:33.754Z,49.60
2019-05-22T14:51:03.651Z,50.10
2019-05-22T14:53:33.593Z,49.90
2019-05-22T14:56:03.769Z,51.10
2019-05-22T14:58:34.025Z,50.30
2019-05-22T15:01:04.329Z,50.50
2019-05-22T15:03:35.675Z,50.90
2019-05-22T15:06:05.537Z,51.30
2019-05-22T15:08:35.494Z,50.70
2019-05-22T15:11:05.641Z,50.30
2019-05-22T15:13:35.552Z,49.80
2019-05-22T15:16:05.334Z,49.60
2019-05-22T15:18:35.090Z,49.50
2019-05-22T15:21:06.509Z,49.30
2019-05-22T15:23:37.472Z,48.10
2019-05-22T15:26:07.150Z,48.20
2019-05-22T15:28:36.978Z,48.60
2019-05-22T15:31:06.821Z,49.00
2019-05-22T15:33:37.018Z,48.70
2019-05-22T15:36:08.273Z,48.50
2019-05-22T15:38:41.108Z,49.60
2019-05-22T15:41:11.645Z,50.60
2019-05-22T15:43:41.656Z,50.80
2019-05-22T15:46:11.849Z,50.70
2019-05-22T15:48:41.734Z,50.20
2019-05-22T15:51:11.461Z,50.40
2019-05-22T15:53:41.670Z,50.30
2019-05-22T15:56:11.524Z,50.40
2019-05-22T15:58:43.902Z,51.20
2019-05-22T16:01:15.094Z,50.50
2019-05-22T16:03:45.570Z,51.70
2019-05-22T16:06:16.064Z,52.20
2019-05-22T16:08:46.577Z,51.80
2019-05-22T16:11:17.023Z,51.90
2019-05-22T16:13:46.826Z,52.40
2019-05-22T16:16:16.817Z,52.60
2019-05-22T16:18:47.750Z,52.60
2019-05-22T16:21:18.030Z,53.20
2019-05-22T16:23:48.340Z,52.90
2019-05-22T16:26:18.460Z,53.20
2019-05-22T16:28:48.782Z,53.80
2019-05-22T16:31:19.524Z,53.00
2019-05-22T16:33:49.302Z,53.50
2019-05-22T16:36:20.115Z,53.90
2019-05-22T16:38:49.857Z,54.70
2019-05-22T16:41:19.792Z,54.00
2019-05-22T16:43:50.557Z,55.10
2019-05-22T16:46:22.493Z,55.40
2019-05-22T16:48:52.640Z,56.70
2019-05-22T16:51:22.520Z,56.90
2019-05-22T16:53:54.027Z,58.00
2019-05-22T16:56:23.844Z,57.90
2019-05-22T16:58:53.854Z,57.00
2019-05-22T17:01:25.356Z,55.40
2019-05-22T17:03:56.681Z,56.40
2019-05-22T17:06:26.707Z,55.30
2019-05-22T17:08:58.088Z,55.10
2019-05-22T17:11:28.645Z,55.10
2019-05-22T17:14:01.655Z,56.80
2019-05-22T17:16:33.316Z,56.90
2019-05-22T17:19:03.498Z,56.50
2019-05-22T17:21:34.409Z,57.50
2019-05-22T17:24:04.809Z,57.70
2019-05-22T17:26:35.261Z,57.30
2019-05-22T17:29:05.162Z,57.00
2019-05-22T17:31:35.251Z,56.30
2019-05-22T17:34:07.254Z,56.20
2019-05-22T17:36:37.367Z,56.60
2019-05-22T17:39:09.784Z,56.10
2019-05-22T17:41:41.505Z,56.80
2019-05-22T17:44:12.257Z,57.10
2019-05-22T17:46:42.403Z,57.90
2019-05-22T17:49:12.394Z,58.70
2019-05-22T17:51:42.569Z,57.60
2019-05-22T17:54:13.574Z,58.30
2019-05-22T17:56:44.275Z,57.30
2019-05-22T17:59:14.068Z,57.30
2019-05-22T18:01:44.311Z,57.60
2019-05-22T18:04:14.236Z,58.30
2019-05-22T18:06:44.040Z,58.70
2019-05-22T18:09:14.141Z,58.40
2019-05-22T18:11:44.052Z,59.80
2019-05-22T18:14:13.794Z,60.60
2019-05-22T18:16:43.537Z,62.60
2019-05-22T18:19:13.889Z,62.20
2019-05-22T18:21:43.797Z,61.60
2019-05-22T18:24:13.554Z,62.30
2019-05-22T18:26:43.575Z,62.60
2019-05-22T18:29:13.764Z,64.50
2019-05-22T18:31:43.738Z,64.90
2019-05-22T18:34:13.603Z,65.80
2019-05-22T18:36:43.537Z,66.10
2019-05-22T18:39:15.561Z,66.80
2019-05-22T18:41:45.384Z,67.00
2019-05-22T18:44:15.207Z,67.40
2019-05-22T18:46:45.041Z,67.90
2019-05-22T18:49:14.846Z,68.50
2019-05-22T18:51:45.128Z,69.10
2019-05-22T18:54:14.885Z,69.10
2019-05-22T18:56:44.957Z,69.10
2019-05-22T18:59:14.911Z,69.50
2019-05-22T19:01:45.104Z,70.30
2019-05-22T19:04:15.495Z,70.00
2019-05-22T19:06:45.942Z,70.70
2019-05-22T19:09:16.023Z,70.80
2019-05-22T19:11:46.102Z,71.20
2019-05-22T19:14:16.378Z,71.80
2019-05-22T19:16:46.251Z,72.10
2019-05-22T19:19:16.012Z,72.20
2019-05-22T19:21:45.694Z,72.30
2019-05-22T19:24:15.564Z,72.40
2019-05-22T19:26:45.706Z,72.00
2019-05-22T19:29:15.831Z,72.10
2019-05-22T19:31:46.153Z,71.80
2019-05-22T19:34:16.822Z,71.50
2019-05-22T19:36:47.015Z,71.00
2019-05-22T19:39:17.403Z,70.30
2019-05-22T19:42:01.323Z,70.20
2019-05-22T19:44:19.343Z,69.80
2019-05-22T19:46:49.887Z,70.30
2019-05-22T19:49:20.784Z,70.60
2019-05-22T19:51:50.797Z,70.50
2019-05-22T19:54:20.633Z,71.30
2019-05-22T19:56:50.586Z,73.10
2019-05-22T19:59:20.846Z,73.00
2019-05-22T20:01:51.051Z,74.70
2019-05-22T20:04:20.971Z,75.20
2019-05-22T20:06:51.369Z,76.70
2019-05-22T20:09:21.164Z,77.30
2019-05-22T20:11:51.033Z,78.50
2019-05-22T20:14:21.034Z,78.60
2019-05-22T20:16:51.406Z,78.60
2019-05-22T20:19:21.617Z,79.70
2019-05-22T20:21:51.631Z,80.10
2019-05-22T20:24:22.575Z,80.40
2019-05-22T20:26:52.494Z,81.00
2019-05-22T20:29:22.498Z,80.70
2019-05-22T20:31:52.321Z,81.00
2019-05-22T20:34:22.175Z,80.80
2019-05-22T20:36:52.841Z,80.90
2019-05-22T20:39:24.505Z,80.90
2019-05-22T20:41:54.411Z,81.40
2019-05-22T20:44:25.155Z,81.70
2019-05-22T20:46:55.623Z,82.20
2019-05-22T20:49:26.601Z,82.80
2019-05-22T20:51:56.890Z,83.40
2019-05-22T20:54:26.833Z,84.20
2019-05-22T20:56:57.112Z,84.50
2019-05-22T20:59:27.755Z,84.90
2019-05-22T21:01:59.103Z,85.40
2019-05-22T21:04:29.573Z,85.60
2019-05-22T21:07:02.338Z,85.60
2019-05-22T21:09:32.609Z,85.70
2019-05-22T21:12:04.013Z,85.70
2019-05-22T21:14:34.156Z,85.60
2019-05-22T21:17:05.609Z,85.90
2019-05-22T21:19:35.423Z,85.90
2019-05-22T21:22:06.904Z,85.80
2019-05-22T21:24:37.482Z,86.00
2019-05-22T21:27:07.549Z,85.80
2019-05-22T21:29:37.682Z,85.80
2019-05-22T21:32:08.594Z,85.60
2019-05-22T21:34:39.328Z,85.70
2019-05-22T21:37:10.204Z,85.60
2019-05-22T21:39:40.645Z,85.20
2019-05-22T21:42:12.006Z,84.70
2019-05-22T21:44:41.830Z,84.30
2019-05-22T21:47:11.547Z,84.00
2019-05-22T21:49:42.827Z,83.20
2019-05-22T21:52:13.017Z,83.30
2019-05-22T21:54:42.923Z,83.00
2019-05-22T21:57:13.508Z,82.80
2019-05-22T21:59:43.921Z,81.60
2019-05-22T22:02:15.787Z,81.10
2019-05-22T22:04:45.934Z,80.40
2019-05-22T22:07:16.893Z,80.80
2019-05-22T22:09:47.139Z,79.60
2019-05-22T22:12:20.937Z,79.30
2019-05-22T22:14:51.350Z,78.40
2019-05-22T22:17:22.830Z,77.40
2019-05-22T22:19:54.031Z,76.40
2019-05-22T22:22:26.934Z,75.60
2019-05-22T22:24:56.850Z,75.80
2019-05-22T22:27:27.528Z,75.90
2019-05-22T22:29:57.435Z,76.80
2019-05-22T22:32:28.818Z,77.70
2019-05-22T22:34:59.114Z,78.00
2019-05-22T22:37:29.211Z,77.70
2019-05-22T22:40:00.717Z,79.40
2019-05-22T22:42:31.707Z,79.40
2019-05-22T22:45:03.091Z,79.90
2019-05-22T22:47:34.775Z,80.50
2019-05-22T22:50:07.303Z,81.00
2019-05-22T22:52:37.381Z,81.70
2019-05-22T22:55:08.848Z,82.10
2019-05-22T22:57:39.424Z,82.90
2019-05-22T23:00:10.794Z,83.60
2019-05-22T23:02:40.636Z,84.10
2019-05-22T23:05:10.730Z,84.50
2019-05-22T23:07:41.519Z,84.80
2019-05-22T23:10:12.590Z,85.10
2019-05-22T23:12:43.176Z,85.30
2019-05-22T23:15:13.704Z,85.40
2019-05-22T23:17:44.343Z,86.20
2019-05-22T23:20:13.438Z,85.60
2019-05-22T23:22:43.955Z,86.10
2019-05-22T23:25:13.763Z,86.00
2019-05-22T23:27:43.522Z,85.80
2019-05-22T23:30:13.976Z,85.50
2019-05-22T23:32:44.078Z,85.60
2019-05-22T23:35:13.853Z,85.70
2019-05-22T23:37:43.709Z,85.90
2019-05-22T23:40:15.873Z,86.20
2019-05-22T23:42:45.782Z,85.90
2019-05-22T23:45:17.193Z,86.10
2019-05-22T23:48:06.179Z,86.40
2019-05-22T23:50:37.852Z,87.10
2019-05-22T23:53:08.827Z,86.90
2019-05-22T23:55:38.924Z,87.20
2019-05-22T23:58:09.858Z,87.30
